Time;durP1;ratioP1;P1;durP2;ratioP2;P2;SDS_P1;SDS_P2;PMS_P1;PMS_P2;Temp;Humidity;BMP_temperature;BMP_pressure;BME280_temperature;BME280_humidity;BME280_pressure;Samples;Min_cycle;Max_cycle;Signal;HPM_P1;HPM_P2
2023/02/24 00:01:23;;;;;;;28.93;25.63;;;;;;;5.77;100.00;96543.09;5058178;28;20210;-69
2023/02/24 00:03:52;;;;;;;30.47;26.60;;;;;;;5.75;100.00;96539.81;5044949;28;21205;-67
2023/02/24 00:06:19;;;;;;;37.57;33.50;;;;;;;5.75;100.00;96536.38;5055299;28;20219;-68
2023/02/24 00:08:47;;;;;;;41.63;37.27;;;;;;;5.72;100.00;96539.34;5058063;28;20199;-67
2023/02/24 00:11:17;;;;;;;36.27;31.33;;;;;;;5.78;100.00;96528.97;5060842;28;20228;-69
2023/02/24 00:13:46;;;;;;;37.73;32.10;;;;;;;5.75;100.00;96517.97;5016837;28;20637;-68
2023/02/24 00:16:16;;;;;;;33.57;29.93;;;;;;;5.73;100.00;96526.03;5060531;28;20312;-67
2023/02/24 00:18:45;;;;;;;33.03;28.77;;;;;;;5.79;100.00;96529.78;5041936;28;20361;-67
2023/02/24 00:21:15;;;;;;;29.40;26.23;;;;;;;5.76;100.00;96524.88;5058150;28;20379;-67
2023/02/24 00:23:45;;;;;;;31.10;27.63;;;;;;;5.70;100.00;96518.47;5063260;28;20306;-67
2023/02/24 00:26:15;;;;;;;28.50;25.57;;;;;;;5.67;100.00;96512.72;5056627;28;20573;-68
2023/02/24 00:28:44;;;;;;;29.73;26.13;;;;;;;5.68;100.00;96511.75;5057968;28;20199;-68
2023/02/24 00:31:14;;;;;;;29.67;26.43;;;;;;;5.74;100.00;96513.72;5030291;28;20431;-69
2023/02/24 00:33:42;;;;;;;28.57;25.37;;;;;;;5.71;100.00;96514.06;5044177;28;20521;-68
2023/02/24 00:36:12;;;;;;;30.40;26.87;;;;;;;5.70;100.00;96509.78;5055259;28;20202;-68
2023/02/24 00:38:43;;;;;;;28.10;25.03;;;;;;;5.72;100.00;96513.06;5061885;28;20213;-68
2023/02/24 00:41:14;;;;;;;28.33;25.30;;;;;;;5.76;100.00;96504.66;5059801;28;20198;-69
2023/02/24 00:43:45;;;;;;;29.13;26.03;;;;;;;5.82;100.00;96507.59;5057455;28;20306;-67
2023/02/24 00:46:15;;;;;;;27.10;24.17;;;;;;;5.83;100.00;96507.44;5032768;28;20203;-69
2023/02/24 00:48:45;;;;;;;28.40;25.30;;;;;;;5.84;100.00;96511.69;5036473;28;20206;-68
2023/02/24 00:51:15;;;;;;;26.33;23.53;;;;;;;5.86;100.00;96495.72;5053437;28;20350;-68
2023/02/24 00:53:44;;;;;;;26.57;23.87;;;;;;;5.94;100.00;96490.47;5059645;28;20685;-67
2023/02/24 00:56:12;;;;;;;27.53;24.73;;;;;;;5.89;100.00;96479.66;5060770;28;20697;-69
2023/02/24 00:58:40;;;;;;;25.83;23.17;;;;;;;5.90;100.00;96479.47;5064329;28;20589;-67
2023/02/24 01:01:14;;;;;;;25.83;23.20;;;;;;;5.92;100.00;96472.22;5017762;28;20241;-67
2023/02/24 01:03:42;;;;;;;28.70;23.93;;;;;;;5.91;100.00;96473.22;5057693;28;20224;-67
2023/02/24 01:06:11;;;;;;;25.80;22.97;;;;;;;5.79;100.00;96478.03;5047854;28;20901;-67
2023/02/24 01:08:39;;;;;;;26.80;23.90;;;;;;;5.74;100.00;96474.28;5062786;28;20210;-68
2023/02/24 01:13:52;;;;;;;24.50;21.90;;;;;;;5.78;100.00;96457.97;5061707;28;20224;-67
2023/02/24 01:16:20;;;;;;;26.70;24.00;;;;;;;5.80;100.00;96458.63;5014946;28;20674;-68
2023/02/24 01:18:49;;;;;;;27.03;23.70;;;;;;;5.83;100.00;96451.38;5061735;28;20780;-67
2023/02/24 01:21:18;;;;;;;23.93;21.47;;;;;;;5.82;100.00;96444.50;5040514;28;20206;-69
2023/02/24 01:23:47;;;;;;;25.53;22.80;;;;;;;5.78;100.00;96444.84;5062246;28;20728;-67
2023/02/24 01:26:15;;;;;;;25.07;22.37;;;;;;;5.81;100.00;96443.69;5060884;28;20202;-69
2023/02/24 01:28:46;;;;;;;24.63;22.03;;;;;;;5.75;100.00;96445.19;5063564;28;20229;-67
2023/02/24 01:31:17;;;;;;;27.53;23.13;;;;;;;5.63;100.00;96442.09;5014054;28;21190;-67
2023/02/24 01:33:47;;;;;;;25.30;22.30;;;;;;;5.55;100.00;96442.16;5066098;28;20692;-67
2023/02/24 01:36:17;;;;;;;24.83;22.13;;;;;;;5.65;100.00;96447.22;5045292;28;20273;-68
2023/02/24 01:38:46;;;;;;;24.83;21.97;;;;;;;5.64;100.00;96427.97;5066313;28;20209;-67
2023/02/24 01:41:15;;;;;;;25.80;22.87;;;;;;;5.62;100.00;96429.97;5065827;28;20820;-69
2023/02/24 01:43:57;;;;;;;26.30;23.50;;;;;;;5.52;100.00;96423.28;5068175;28;20222;-67
2023/02/24 01:46:25;;;;;;;26.57;23.37;;;;;;;5.52;100.00;96428.56;5020124;28;20849;-68
2023/02/24 01:48:58;;;;;;;26.57;23.03;;;;;;;5.46;100.00;96428.22;5062082;28;20244;-67
2023/02/24 01:51:27;;;;;;;25.40;22.77;;;;;;;5.38;100.00;96432.69;5045478;28;20207;-69
2023/02/24 01:53:54;;;;;;;26.20;23.23;;;;;;;5.36;100.00;96422.34;5063492;28;20705;-67
2023/02/24 01:56:22;;;;;;;25.47;22.90;;;;;;;5.42;100.00;96428.75;5065984;28;20594;-69
2023/02/24 01:58:49;;;;;;;28.40;23.53;;;;;;;5.35;100.00;96428.59;5063543;28;20191;-67
2023/02/24 02:01:18;;;;;;;27.80;22.57;;;;;;;5.30;100.00;96425.66;5011543;28;20230;-68
2023/02/24 02:03:47;;;;;;;26.07;23.27;;;;;;;5.22;100.00;96434.38;5065971;28;20226;-67
2023/02/24 02:06:17;;;;;;;26.20;23.20;;;;;;;5.13;100.00;96430.13;5061371;28;20206;-69
2023/02/24 02:08:45;;;;;;;28.80;24.17;;;;;;;5.18;100.00;96418.16;5041597;28;20935;-67
2023/02/24 02:11:18;;;;;;;29.40;24.60;;;;;;;5.31;100.00;96409.75;5059331;28;20191;-67
2023/02/24 02:13:49;;;;;;;26.90;24.17;;;;;;;5.39;100.00;96402.81;5063347;28;20230;-69
2023/02/24 02:16:28;;;;;;;29.17;25.03;;;;;;;5.36;100.00;96396.91;5040018;28;20206;-68
2023/02/24 02:19:07;;;;;;;28.63;25.53;;;;;;;5.29;100.00;96403.81;5064525;28;21007;-68
2023/02/24 02:22:07;;;;;;;27.37;24.37;;;;;;;5.36;100.00;96404.78;5056289;28;20504;-70
2023/02/24 02:24:41;;;;;;;32.70;26.37;;;;;;;5.33;100.00;96404.31;5046733;28;20953;-68
2023/02/24 02:27:23;;;;;;;43.73;26.93;;;;;;;5.29;100.00;96406.44;5061969;28;20226;-68
2023/02/24 02:30:18;;;;;;;32.23;27.23;;;;;;;5.19;100.00;96401.41;5062977;28;20599;-70
2023/02/24 02:33:26;;;;;;;31.57;24.70;;;;;;;5.17;100.00;96405.19;5019504;28;20339;-69
2023/02/24 02:35:59;;;;;;;31.70;25.13;;;;;;;5.19;100.00;96408.44;5060773;28;20565;-70
2023/02/24 02:38:33;;;;;;;27.57;23.90;;;;;;;5.23;100.00;96415.00;5041382;28;20422;-68
2023/02/24 02:41:07;;;;;;;30.17;24.40;;;;;;;5.33;100.00;96405.13;5064076;28;20209;-70
2023/02/24 02:43:38;;;;;;;28.20;25.20;;;;;;;5.40;100.00;96402.63;5054240;28;20227;-70
2023/02/24 02:46:08;;;;;;;31.47;24.93;;;;;;;5.32;100.00;96393.00;5063379;28;20202;-69
2023/02/24 02:48:40;;;;;;;27.20;23.83;;;;;;;5.28;100.00;96391.66;5013851;28;20299;-70
2023/02/24 02:51:10;;;;;;;26.23;23.50;;;;;;;5.28;100.00;96383.78;5066252;28;20231;-68
2023/02/24 02:53:41;;;;;;;27.20;23.57;;;;;;;5.40;100.00;96386.06;5060073;28;20291;-70
2023/02/24 02:56:12;;;;;;;27.80;23.83;;;;;;;5.43;100.00;96376.00;5042067;28;20225;-69
2023/02/24 02:58:42;;;;;;;50.90;26.77;;;;;;;5.34;100.00;96392.81;5063810;28;20214;-70
2023/02/24 03:01:10;;;;;;;31.83;24.33;;;;;;;5.34;100.00;96387.56;5061900;28;20194;-68
2023/02/24 03:03:40;;;;;;;26.00;23.23;;;;;;;5.36;100.00;96382.94;5018892;28;22645;-69
2023/02/24 03:06:13;;;;;;;25.97;23.20;;;;;;;5.40;100.00;96378.97;5057619;28;20464;-68
2023/02/24 03:08:44;;;;;;;24.57;22.17;;;;;;;5.41;100.00;96378.00;5060355;28;20257;-71
2023/02/24 03:11:15;;;;;;;23.60;21.10;;;;;;;5.44;100.00;96377.66;5041044;28;20230;-68
2023/02/24 03:13:48;;;;;;;23.80;21.20;;;;;;;5.40;100.00;96368.47;5058617;28;20309;-70
2023/02/24 03:16:17;;;;;;;24.53;21.93;;;;;;;5.30;100.00;96368.72;5061243;28;20289;-68
2023/02/24 03:18:50;;;;;;;22.40;20.20;;;;;;;5.44;100.00;96369.78;5063610;28;20198;-69
2023/02/24 03:21:27;;;;;;;23.83;21.50;;;;;;;5.18;100.00;96352.50;5018817;28;20866;-68
2023/02/24 03:23:55;;;;;;;22.20;19.90;;;;;;;5.30;100.00;96368.72;5063188;28;20351;-70
2023/02/24 03:26:27;;;;;;;22.17;19.97;;;;;;;5.28;100.00;96364.59;5038524;28;20237;-68
2023/02/24 03:28:59;;;;;;;25.10;22.47;;;;;;;5.30;100.00;96362.63;5064125;28;20543;-70
2023/02/24 03:31:29;;;;;;;26.03;23.43;;;;;;;5.24;100.00;96358.06;5054784;28;20297;-67
2023/02/24 03:34:02;;;;;;;26.03;23.27;;;;;;;5.20;100.00;96352.31;5058198;28;20234;-68
2023/02/24 03:36:32;;;;;;;26.37;23.57;;;;;;;5.13;100.00;96349.56;5012703;28;21164;-69
2023/02/24 03:39:00;;;;;;;25.73;22.93;;;;;;;5.13;100.00;96353.97;5064022;28;20221;-70
2023/02/24 03:41:31;;;;;;;25.57;22.80;;;;;;;5.16;100.00;96367.59;5042055;28;20670;-69
2023/02/24 03:43:59;;;;;;;25.43;22.57;;;;;;;5.17;100.00;96358.75;5062901;28;20230;-70
2023/02/24 03:46:28;;;;;;;29.97;24.67;;;;;;;5.14;100.00;96353.81;5056724;28;20594;-68
2023/02/24 03:49:00;;;;;;;32.57;24.50;;;;;;;5.09;100.00;96355.31;5066937;28;20226;-69
2023/02/24 03:51:28;;;;;;;30.00;25.40;;;;;;;5.11;100.00;96355.97;5012392;28;20207;-69
2023/02/24 03:54:04;;;;;;;31.63;26.70;;;;;;;5.17;100.00;96357.91;5061571;28;20317;-70
2023/02/24 03:56:44;;;;;;;30.53;24.17;;;;;;;5.07;100.00;96343.19;5041698;28;20413;-70
2023/02/24 03:59:22;;;;;;;25.70;22.83;;;;;;;5.12;100.00;96345.31;5062502;28;20198;-68
2023/02/24 04:01:56;;;;;;;40.43;24.93;;;;;;;5.03;100.00;96346.31;5062312;28;20690;-69
2023/02/24 04:04:30;;;;;;;43.53;25.93;;;;;;;4.97;100.00;96363.56;5059341;28;20517;-68
2023/02/24 04:07:00;;;;;;;31.77;23.10;;;;;;;5.00;100.00;96363.22;5021677;28;20214;-69
2023/02/24 04:09:35;;;;;;;34.17;23.20;;;;;;;4.99;100.00;96343.22;5060666;28;20222;-67
2023/02/24 04:12:08;;;;;;;26.43;22.70;;;;;;;5.07;100.00;96347.59;5040699;28;20280;-68
2023/02/24 04:14:46;;;;;;;26.60;22.63;;;;;;;5.10;100.00;96344.63;5047225;28;20784;-67
2023/02/24 04:17:18;;;;;;;24.73;21.30;;;;;;;5.13;100.00;96344.31;5059471;28;20640;-68
2023/02/24 04:19:48;;;;;;;29.83;24.50;;;;;;;5.01;100.00;96335.16;5037820;28;20388;-68
2023/02/24 04:22:23;;;;;;;25.77;22.57;;;;;;;5.03;100.00;96328.75;5017789;28;20209;-71
2023/02/24 04:24:55;;;;;;;30.60;23.77;;;;;;;4.95;100.00;96326.16;5057544;28;20251;-69
2023/02/24 04:27:24;;;;;;;26.87;23.97;;;;;;;4.98;100.00;96322.38;5048222;28;20427;-71
2023/02/24 04:29:53;;;;;;;36.37;25.33;;;;;;;4.96;100.00;96329.59;5041568;28;20221;-69
2023/02/24 04:32:24;;;;;;;32.70;25.60;;;;;;;4.89;100.00;96326.81;5061371;28;20232;-68
2023/02/24 04:34:52;;;;;;;25.70;22.97;;;;;;;4.83;100.00;96320.47;5059138;28;20567;-67
2023/02/24 04:37:21;;;;;;;26.97;23.90;;;;;;;4.95;100.00;96338.47;5015665;28;20210;-67
2023/02/24 04:39:50;;;;;;;29.37;23.97;;;;;;;5.00;100.00;96336.13;5061068;28;20214;-68
2023/02/24 04:42:21;;;;;;;29.47;24.23;;;;;;;5.02;100.00;96331.53;5067165;28;20409;-69
2023/02/24 04:44:48;;;;;;;29.67;24.27;;;;;;;5.15;100.00;96328.38;5044450;28;20321;-68
2023/02/24 04:47:16;;;;;;;27.63;23.73;;;;;;;5.07;100.00;96323.97;5053797;28;20414;-68
2023/02/24 04:49:44;;;;;;;27.47;23.80;;;;;;;5.06;100.00;96327.56;5060511;28;20648;-69
2023/02/24 04:52:14;;;;;;;30.53;24.43;;;;;;;5.15;100.00;96318.69;5013450;28;20721;-67
2023/02/24 04:54:43;;;;;;;26.77;23.73;;;;;;;5.16;100.00;96320.34;5063040;28;20786;-69
2023/02/24 04:57:11;;;;;;;37.90;26.43;;;;;;;5.04;100.00;96314.63;5057418;28;20496;-70
2023/02/24 04:59:40;;;;;;;28.03;24.17;;;;;;;5.09;100.00;96324.59;5042183;28;21466;-69
2023/02/24 05:02:08;;;;;;;27.30;23.07;;;;;;;5.16;100.00;96315.09;5055539;28;20863;-70
2023/02/24 05:04:37;;;;;;;26.20;23.30;;;;;;;5.28;100.00;96312.88;5063528;28;20218;-68
2023/02/24 05:07:05;;;;;;;25.90;22.03;;;;;;;5.35;100.00;96302.50;5059891;28;20198;-69
2023/02/24 05:09:32;;;;;;;26.50;23.40;;;;;;;5.31;100.00;96291.53;5024770;28;20238;-69
2023/02/24 05:12:00;;;;;;;26.93;23.83;;;;;;;5.20;100.00;96294.53;5063290;28;20200;-68
2023/02/24 05:14:28;;;;;;;29.53;23.50;;;;;;;5.27;100.00;96284.97;5048106;28;20232;-70
2023/02/24 05:16:59;;;;;;;26.23;23.40;;;;;;;5.30;100.00;96284.66;5063228;28;20344;-69
2023/02/24 05:22:13;;;;;;;30.30;24.80;;;;;;;5.05;100.00;96284.75;5062989;28;20198;-71
2023/02/24 05:24:41;;;;;;;31.77;25.53;;;;;;;5.02;100.00;96277.22;5016434;28;20233;-71
2023/02/24 05:27:08;;;;;;;36.40;25.67;;;;;;;5.05;100.00;96276.88;5064198;28;20391;-69
2023/02/24 05:29:37;;;;;;;28.03;24.67;;;;;;;4.96;100.00;96271.84;5064303;28;20516;-69
2023/02/24 05:32:08;;;;;;;29.87;25.13;;;;;;;4.96;100.00;96261.34;5044425;28;20198;-69
2023/02/24 05:34:37;;;;;;;32.37;23.67;;;;;;;4.98;100.00;96244.44;5063463;28;20236;-70
2023/02/24 05:37:09;;;;;;;28.10;24.10;;;;;;;5.00;100.00;96245.09;5057859;28;20238;-69
2023/02/24 05:39:37;;;;;;;29.27;22.30;;;;;;;5.04;100.00;96248.16;5020187;28;20559;-72
2023/02/24 05:42:05;;;;;;;24.40;21.70;;;;;;;5.04;100.00;96256.03;5066178;28;20234;-70
2023/02/24 05:44:35;;;;;;;28.00;24.53;;;;;;;5.01;100.00;96246.72;5066086;28;20218;-69
2023/02/24 05:47:04;;;;;;;27.50;22.90;;;;;;;5.01;100.00;96245.88;5044937;28;20205;-70
2023/02/24 05:49:34;;;;;;;26.47;23.27;;;;;;;4.95;100.00;96249.19;5064933;28;20313;-71
2023/02/24 05:52:06;;;;;;;25.73;23.10;;;;;;;4.93;100.00;96242.31;5057522;28;20213;-69
2023/02/24 05:54:35;;;;;;;27.20;23.93;;;;;;;4.92;100.00;96250.34;5018767;28;20345;-72
2023/02/24 05:57:04;;;;;;;28.73;25.40;;;;;;;4.95;100.00;96247.41;5062408;28;20202;-70
2023/02/24 05:59:33;;;;;;;27.47;24.47;;;;;;;4.93;100.00;96237.06;5060447;28;20395;-69
2023/02/24 06:02:05;;;;;;;27.53;24.10;;;;;;;4.88;100.00;96234.13;5060475;28;20199;-69
2023/02/24 06:04:44;;;;;;;28.60;23.27;;;;;;;4.92;100.00;96239.84;5062835;28;20240;-71
2023/02/24 06:07:17;;;;;;;28.87;24.83;;;;;;;4.90;100.00;96249.69;5062330;28;20755;-71
2023/02/24 06:09:48;;;;;;;30.80;24.17;;;;;;;4.86;100.00;96241.38;5023314;28;20653;-72
2023/02/24 06:12:17;;;;;;;27.40;22.83;;;;;;;5.00;100.00;96252.97;5063928;28;20717;-71
2023/02/24 06:14:45;;;;;;;28.97;22.47;;;;;;;5.13;100.00;96252.41;5061410;28;20222;-71
2023/02/24 06:17:15;;;;;;;26.83;23.17;;;;;;;5.06;100.00;96235.69;5065254;28;20346;-70
2023/02/24 06:19:44;;;;;;;25.13;22.20;;;;;;;5.13;100.00;96246.31;5063860;28;20673;-71
2023/02/24 06:22:13;;;;;;;30.33;23.90;;;;;;;5.04;100.00;96242.91;5059191;28;20545;-71
2023/02/24 06:24:43;;;;;;;30.20;23.50;;;;;;;5.07;100.00;96242.56;5064005;28;20226;-71
2023/02/24 06:27:16;;;;;;;27.37;24.37;;;;;;;5.04;100.00;96248.16;5020927;28;20282;-70
2023/02/24 06:29:44;;;;;;;31.40;23.27;;;;;;;5.03;100.00;96250.00;5063712;28;20233;-70
2023/02/24 06:32:12;;;;;;;30.70;23.63;;;;;;;4.98;100.00;96243.59;5064779;28;20217;-70
2023/02/24 06:34:40;;;;;;;28.57;24.63;;;;;;;5.01;100.00;96248.50;5067837;28;20233;-70
2023/02/24 06:37:12;;;;;;;30.43;23.77;;;;;;;4.98;100.00;96243.59;5059990;28;20214;-68
2023/02/24 06:39:40;;;;;;;30.10;24.63;;;;;;;5.06;100.00;96238.31;5063095;28;20214;-69
2023/02/24 06:42:09;;;;;;;27.83;24.13;;;;;;;5.09;100.00;96243.22;5021860;28;20217;-70
2023/02/24 06:44:38;;;;;;;29.07;23.60;;;;;;;5.16;100.00;96241.56;5041150;28;20258;-70
2023/02/24 06:47:07;;;;;;;27.77;23.70;;;;;;;5.19;100.00;96240.38;5065050;28;20585;-72
2023/02/24 06:49:35;;;;;;;26.67;23.17;;;;;;;5.23;100.00;96236.41;5046050;28;20234;-70
2023/02/24 06:52:03;;;;;;;26.93;23.23;;;;;;;5.42;100.00;96234.34;5057796;28;20206;-69
2023/02/24 06:54:34;;;;;;;25.63;22.70;;;;;;;5.53;100.00;96235.75;5042618;28;20244;-70
2023/02/24 06:57:03;;;;;;;25.80;22.83;;;;;;;5.51;100.00;96233.28;5019469;28;20218;-70
2023/02/24 06:59:31;;;;;;;34.27;30.53;;;;;;;5.33;100.00;96229.13;5063404;28;20198;-70
2023/02/24 07:02:00;;;;;;;27.80;24.83;;;;;;;5.19;100.00;96222.00;5043489;28;20217;-68
2023/02/24 07:04:28;;;;;;;27.80;23.10;;;;;;;5.16;100.00;96233.69;5044476;28;20309;-69
2023/02/24 07:07:01;;;;;;;30.07;22.97;;;;;;;5.18;100.00;96222.97;5058778;28;20746;-68
2023/02/24 07:09:30;;;;;;;30.00;23.43;;;;;;;5.16;100.00;96225.78;5047750;28;20690;-69
2023/02/24 07:12:01;;;;;;;28.40;23.73;;;;;;;5.27;100.00;96226.38;5018766;28;20217;-68
2023/02/24 07:14:30;;;;;;;28.90;23.57;;;;;;;5.36;100.00;96226.16;5063531;28;20218;-67
2023/02/24 07:16:58;;;;;;;28.40;23.70;;;;;;;5.29;100.00;96224.41;5060748;28;20233;-68
2023/02/24 07:19:28;;;;;;;26.60;23.47;;;;;;;5.30;100.00;96223.41;5043992;28;20311;-69
2023/02/24 07:21:58;;;;;;;28.93;23.10;;;;;;;5.38;100.00;96223.34;5064473;28;20210;-68
2023/02/24 07:24:34;;;;;;;26.23;23.47;;;;;;;5.47;100.00;96221.50;5035266;28;20429;-70
2023/02/24 07:27:05;;;;;;;26.63;23.33;;;;;;;5.58;100.00;96221.06;5016783;28;20210;-68
2023/02/24 07:29:34;;;;;;;29.20;23.40;;;;;;;5.62;100.00;96211.03;5046487;28;20662;-70
2023/02/24 07:32:04;;;;;;;27.20;22.70;;;;;;;5.67;100.00;96199.97;5060279;28;20615;-68
2023/02/24 07:34:32;;;;;;;34.70;27.47;;;;;;;5.62;100.00;96213.66;5043803;28;20296;-70
2023/02/24 07:37:06;;;;;;;53.63;36.50;;;;;;;5.72;100.00;96213.41;5058670;28;20293;-68
2023/02/24 07:39:36;;;;;;;30.97;27.67;;;;;;;5.73;100.00;96194.03;5064037;28;20239;-67
2023/02/24 07:42:06;;;;;;;31.13;23.43;;;;;;;5.87;100.00;96205.53;5013942;28;20215;-68
2023/02/24 07:44:34;;;;;;;29.50;22.70;;;;;;;5.74;100.00;96201.72;5062770;28;20368;-68
2023/02/24 07:47:06;;;;;;;26.13;22.60;;;;;;;5.69;100.00;96214.59;5040508;28;20217;-68
2023/02/24 07:49:35;;;;;;;30.70;23.33;;;;;;;5.70;100.00;96212.78;5041662;28;20283;-71
2023/02/24 07:52:02;;;;;;;29.47;24.23;;;;;;;5.70;100.00;96210.97;5061258;28;20407;-69
2023/02/24 07:54:30;;;;;;;30.53;23.27;;;;;;;5.83;100.00;96204.28;5058806;28;20224;-69
2023/02/24 07:56:58;;;;;;;25.67;22.87;;;;;;;6.04;100.00;96211.50;5018897;28;20217;-69
2023/02/24 07:59:29;;;;;;;27.70;24.20;;;;;;;6.09;100.00;96206.56;5065851;28;20334;-71
2023/02/24 08:01:57;;;;;;;31.53;24.33;;;;;;;6.00;100.00;96200.50;5046676;28;20674;-69
2023/02/24 08:04:26;;;;;;;26.50;22.97;;;;;;;6.07;100.00;96195.41;5042279;28;21318;-69
2023/02/24 08:07:01;;;;;;;30.20;24.07;;;;;;;6.19;100.00;96198.38;5060769;28;20313;-69
2023/02/24 08:12:20;;;;;;;40.83;29.63;;;;;;;6.31;100.00;96186.41;5017451;28;26071;-69
2023/02/24 08:14:50;;;;;;;32.87;25.93;;;;;;;6.40;100.00;96173.97;5059164;28;20218;-71
2023/02/24 08:17:19;;;;;;;28.10;23.43;;;;;;;6.55;100.00;96173.97;5039576;28;20725;-70
2023/02/24 08:19:48;;;;;;;27.47;22.27;;;;;;;6.39;100.00;96176.81;5063763;28;20694;-71
2023/02/24 08:22:19;;;;;;;28.83;23.43;;;;;;;6.64;100.00;96172.88;5041989;28;20282;-69
2023/02/24 08:24:49;;;;;;;26.17;22.80;;;;;;;6.71;100.00;96170.31;5029578;28;20438;-71
2023/02/24 08:27:18;;;;;;;23.73;20.87;;;;;;;6.77;100.00;96163.50;5063546;28;20259;-70
2023/02/24 08:30:01;;;;;;;28.17;21.60;;;;;;;6.80;100.00;96165.75;4996200;28;20932;-68
2023/02/24 08:32:33;;;;;;;24.53;20.93;;;;;;;6.73;100.00;96160.41;5037260;28;20223;-68
2023/02/24 08:35:03;;;;;;;24.87;20.73;;;;;;;6.77;100.00;96160.88;5065465;28;20724;-69
2023/02/24 08:37:38;;;;;;;22.50;19.93;;;;;;;7.01;100.00;96149.19;5041875;28;20198;-67
2023/02/24 08:40:28;;;;;;;23.23;20.33;;;;;;;6.95;100.00;96158.63;5066787;28;20227;-69
2023/02/24 08:42:57;;;;;;;24.03;19.67;;;;;;;6.92;100.00;96151.09;5019007;28;21259;-69
2023/02/24 08:45:28;;;;;;;22.13;19.40;;;;;;;7.17;100.00;96152.56;5062900;28;20202;-67
2023/02/24 08:47:59;;;;;;;21.03;18.60;;;;;;;7.19;100.00;96146.13;5019607;28;20789;-68
2023/02/24 08:50:29;;;;;;;20.63;17.57;;;;;;;7.14;100.00;96137.97;5060865;28;20194;-67
2023/02/24 08:52:59;;;;;;;19.90;17.77;;;;;;;7.30;100.00;96143.97;5037699;28;20199;-68
2023/02/24 08:55:31;;;;;;;19.87;17.57;;;;;;;6.97;100.00;96142.66;5046461;28;20387;-69
2023/02/24 08:58:01;;;;;;;18.00;15.73;;;;;;;6.85;100.00;96126.53;5053075;28;20670;-69
2023/02/24 09:00:47;;;;;;;19.63;17.53;;;;;;;7.22;100.00;96137.03;5032734;28;20814;-69
2023/02/24 09:03:26;;;;;;;20.77;17.80;;;;;;;7.01;100.00;96138.63;5057268;28;20225;-68
2023/02/24 09:05:59;;;;;;;19.13;16.33;;;;;;;7.26;100.00;96124.28;5062112;28;20206;-70
2023/02/24 09:08:31;;;;;;;19.77;16.60;;;;;;;7.37;100.00;96121.13;5039767;28;20757;-70
2023/02/24 09:11:06;;;;;;;19.63;17.30;;;;;;;7.33;100.00;96125.16;5063565;28;20221;-68
2023/02/24 09:13:35;;;;;;;19.63;16.47;;;;;;;7.48;100.00;96120.63;5061624;28;20428;-68
2023/02/24 09:16:05;;;;;;;18.50;16.57;;;;;;;7.78;100.00;96102.00;5014509;28;20330;-68
2023/02/24 09:18:37;;;;;;;16.83;15.03;;;;;;;7.72;100.00;96108.00;5063188;28;20506;-68
2023/02/24 09:23:54;;;;;;;15.20;13.67;;;;;;;7.88;100.00;96090.28;5050677;28;20733;-68
2023/02/24 09:26:22;;;;;;;15.50;13.83;;;;;;;7.90;100.00;96083.00;5053704;28;20224;-69
2023/02/24 09:28:53;;;;;;;15.90;13.80;;;;;;;7.77;100.00;96074.00;5061204;28;20195;-68
2023/02/24 09:31:23;;;;;;;15.50;14.00;;;;;;;7.68;100.00;96083.03;5008951;28;20457;-68
2023/02/24 09:33:51;;;;;;;16.30;14.43;;;;;;;7.33;100.00;96073.28;5060898;28;20242;-68
2023/02/24 09:36:26;;;;;;;15.90;13.63;;;;;;;7.64;100.00;96079.16;5061373;28;20296;-70
2023/02/24 09:39:13;;;;;;;15.73;13.60;;;;;;;7.54;100.00;96079.50;5061093;28;20246;-68
2023/02/24 09:41:55;;;;;;;18.87;15.33;;;;;;;7.65;100.00;96070.25;5058349;28;20210;-70
2023/02/24 09:44:33;;;;;;;16.03;14.33;;;;;;;7.80;100.00;96070.97;5059628;28;20781;-69
2023/02/24 09:47:09;;;;;;;17.33;14.27;;;;;;;7.82;100.00;96076.03;5018386;28;21192;-68
2023/02/24 09:49:48;;;;;;;16.50;14.70;;;;;;;7.72;100.00;96052.66;5066008;28;20786;-70
2023/02/24 09:52:17;;;;;;;15.33;13.23;;;;;;;7.77;100.00;96058.19;5060913;28;20402;-69
2023/02/24 09:55:17;;;;;;;16.00;13.83;;;;;;;7.75;100.00;96056.72;5064407;28;20226;-68
2023/02/24 09:58:21;;;;;;;14.70;13.00;;;;;;;7.93;100.00;96043.03;5061431;28;20338;-69
2023/02/24 10:00:42;;;;;;;17.70;13.77;;;;;;;8.11;100.00;96050.44;5018864;28;20313;-70
2023/02/24 10:03:19;;;;;;;16.97;13.33;;;;;;;8.10;100.00;96048.81;5068309;28;20375;-68
2023/02/24 10:05:57;;;;;;;17.63;14.40;;;;;;;7.97;100.00;96046.91;5067369;28;20430;-69
2023/02/24 10:08:31;;;;;;;15.73;14.13;;;;;;;8.37;100.00;96041.00;5064597;28;20201;-69
2023/02/24 10:11:06;;;;;;;15.47;13.70;;;;;;;8.43;100.00;96034.91;5062959;28;20206;-68
2023/02/24 10:13:37;;;;;;;16.30;13.93;;;;;;;8.65;100.00;96018.94;5067247;28;20213;-69
2023/02/24 10:16:10;;;;;;;13.93;12.50;;;;;;;8.52;100.00;96025.00;5019630;28;20629;-68
2023/02/24 10:18:43;;;;;;;14.97;12.80;;;;;;;8.50;100.00;96027.84;5067371;28;20210;-68
2023/02/24 10:21:19;;;;;;;15.27;13.27;;;;;;;8.44;100.00;96028.63;5062799;28;20410;-67
2023/02/24 10:23:58;;;;;;;14.80;12.90;;;;;;;8.89;100.00;96014.13;5067587;28;20224;-68
2023/02/24 10:26:43;;;;;;;13.77;12.37;;;;;;;8.90;100.00;95997.25;5062510;28;20302;-69
2023/02/24 10:29:33;;;;;;;14.03;12.43;;;;;;;8.95;100.00;95997.44;5065097;28;20206;-70
2023/02/24 10:32:17;;;;;;;13.70;12.37;;;;;;;8.90;100.00;95998.06;5014097;28;20410;-68
2023/02/24 10:34:48;;;;;;;16.77;13.27;;;;;;;8.96;100.00;95994.63;5062219;28;20369;-70
2023/02/24 10:37:18;;;;;;;14.37;12.90;;;;;;;8.87;100.00;95987.09;5061503;28;20858;-70
2023/02/24 10:39:57;;;;;;;14.00;12.43;;;;;;;8.75;100.00;95973.66;5062436;28;20280;-68
2023/02/24 10:42:30;;;;;;;18.83;13.40;;;;;;;8.91;100.00;95977.75;5066345;28;20221;-68
2023/02/24 10:45:10;;;;;;;14.93;13.20;;;;;;;8.87;100.00;95971.25;5060757;28;20229;-68
2023/02/24 10:47:55;;;;;;;14.43;12.97;;;;;;;8.66;100.00;95955.38;5019452;28;20574;-70
2023/02/24 10:50:27;;;;;;;15.90;14.03;;;;;;;8.66;100.00;95968.59;5065752;28;20314;-68
2023/02/24 10:53:25;;;;;;;15.17;12.20;;;;;;;8.95;100.00;95958.66;5061489;28;20233;-68
2023/02/24 10:56:13;;;;;;;13.77;11.90;;;;;;;9.11;99.97;95944.22;5060367;28;20226;-68
2023/02/24 10:58:48;;;;;;;23.43;18.10;;;;;;;8.82;100.00;95962.09;5063230;28;20297;-68
2023/02/24 11:01:20;;;;;;;14.10;12.57;;;;;;;8.90;100.00;95957.63;5062462;28;20453;-70
2023/02/24 11:04:00;;;;;;;15.80;13.90;;;;;;;8.81;100.00;95949.09;5018017;28;20746;-68
2023/02/24 11:06:54;;;;;;;15.13;12.60;;;;;;;8.00;100.00;95946.28;5062825;28;21023;-67
2023/02/24 11:09:34;;;;;;;16.60;14.60;;;;;;;7.95;100.00;95932.88;5034660;28;20240;-70
2023/02/24 11:17:46;;;;;;;14.87;12.43;;;;;;;8.27;100.00;95917.34;5062955;28;21173;-67
2023/02/24 11:20:23;;;;;;;14.80;13.30;;;;;;;8.48;100.00;95920.78;5017317;28;20362;-67
2023/02/24 11:22:54;;;;;;;13.53;12.23;;;;;;;8.36;100.00;95912.69;5061551;28;20278;-68
2023/02/24 11:25:25;;;;;;;14.27;11.43;;;;;;;8.23;100.00;95911.63;5064222;28;20194;-70
2023/02/24 11:27:54;;;;;;;12.03;10.60;;;;;;;8.05;100.00;95906.94;5062361;28;20227;-68
2023/02/24 11:30:29;;;;;;;16.87;11.07;;;;;;;8.07;100.00;95902.25;5049081;28;20198;-70
2023/02/24 11:33:12;;;;;;;11.97;10.80;;;;;;;8.03;100.00;95893.13;5062298;28;20217;-68
2023/02/24 11:35:46;;;;;;;12.77;11.43;;;;;;;7.95;100.00;95888.03;5019447;28;21821;-68
2023/02/24 11:38:27;;;;;;;13.87;12.40;;;;;;;8.19;100.00;95878.75;5063441;28;20665;-69
2023/02/24 11:41:04;;;;;;;13.23;11.93;;;;;;;8.37;100.00;95872.09;5057500;28;20207;-68
2023/02/24 11:43:33;;;;;;;14.43;12.10;;;;;;;8.56;99.65;95869.66;5033789;28;20222;-68
2023/02/24 11:46:05;;;;;;;12.90;10.90;;;;;;;8.69;100.00;95865.19;5047979;28;20205;-70
2023/02/24 11:48:36;;;;;;;12.43;11.17;;;;;;;8.88;99.62;95849.50;5060017;28;20707;-68
2023/02/24 11:51:07;;;;;;;13.30;11.57;;;;;;;8.96;98.04;95846.69;5016980;28;20218;-70
2023/02/24 11:53:41;;;;;;;14.67;11.80;;;;;;;8.99;95.51;95837.50;5063228;28;20222;-69
2023/02/24 11:56:11;;;;;;;14.83;12.50;;;;;;;9.18;97.06;95841.13;5064386;28;20678;-69